Time;durP1;ratioP1;P1;durP2;ratioP2;P2;SDS_P1;SDS_P2;PMS_P1;PMS_P2;Temp;Humidity;BMP_temperature;BMP_pressure;BME280_temperature;BME280_humidity;BME280_pressure;Samples;Min_cycle;Max_cycle;Signal;HPM_P1;HPM_P2
2023/09/12 00:02:23;;;;;;;17.60;10.30;;;22.30;91.40;;;;;;6242399;23;20012;-68
2023/09/12 00:05:09;;;;;;;14.82;10.07;;;22.30;91.60;;;;;;6242141;23;20455;-68
2023/09/12 00:07:55;;;;;;;16.42;9.77;;;22.30;91.70;;;;;;6241583;23;20012;-67
2023/09/12 00:10:41;;;;;;;15.65;9.75;;;22.30;91.70;;;;;;6243083;23;20016;-67
2023/09/12 00:13:27;;;;;;;13.35;8.75;;;22.20;91.70;;;;;;6241903;22;20042;-68
2023/09/12 00:16:13;;;;;;;15.75;8.68;;;22.20;91.80;;;;;;6241567;23;20008;-67
2023/09/12 00:18:59;;;;;;;15.35;9.55;;;22.20;91.80;;;;;;6242349;23;20020;-68
2023/09/12 00:21:45;;;;;;;13.90;9.18;;;22.20;92.00;;;;;;6243249;23;20445;-68
2023/09/12 00:24:31;;;;;;;13.95;9.82;;;22.10;92.00;;;;;;6241645;23;20004;-68
2023/09/12 00:27:17;;;;;;;15.55;9.70;;;22.10;92.10;;;;;;6242660;23;20341;-68
2023/09/12 00:30:03;;;;;;;17.25;10.70;;;22.10;92.10;;;;;;6243760;22;20398;-68
2023/09/12 00:32:49;;;;;;;14.93;9.68;;;22.10;92.10;;;;;;6241047;23;20012;-68
2023/09/12 00:35:35;;;;;;;16.50;10.18;;;22.00;92.20;;;;;;6242788;22;20004;-67
2023/09/12 00:38:21;;;;;;;13.05;8.60;;;22.00;92.30;;;;;;6241204;23;20004;-66
2023/09/12 00:41:07;;;;;;;12.18;8.80;;;22.00;92.30;;;;;;6242612;23;20008;-67
2023/09/12 00:43:53;;;;;;;13.13;8.80;;;22.00;92.40;;;;;;6242465;23;20004;-67
2023/09/12 00:46:40;;;;;;;13.60;9.18;;;22.00;92.50;;;;;;6242480;23;20004;-67
2023/09/12 00:49:27;;;;;;;15.15;9.55;;;22.00;92.60;;;;;;6240679;23;20091;-67
2023/09/12 00:52:14;;;;;;;15.75;9.48;;;21.90;92.60;;;;;;6242252;23;20067;-68
2023/09/12 00:55:01;;;;;;;15.50;9.35;;;21.90;92.70;;;;;;6242334;22;20357;-67
2023/09/12 00:57:48;;;;;;;14.13;9.25;;;21.90;92.80;;;;;;6241163;23;20028;-67
2023/09/12 01:00:34;;;;;;;12.07;8.82;;;21.90;92.80;;;;;;6240780;23;20011;-68
2023/09/12 01:03:20;;;;;;;14.77;9.05;;;21.80;92.90;;;;;;6242554;23;20095;-67
2023/09/12 01:06:08;;;;;;;12.75;8.65;;;21.80;92.90;;;;;;6242952;23;20036;-67
2023/09/12 01:08:55;;;;;;;14.70;9.95;;;21.80;93.00;;;;;;6240888;23;20004;-67
2023/09/12 01:11:41;;;;;;;14.23;10.02;;;21.80;93.10;;;;;;6241034;23;20013;-67
2023/09/12 01:14:27;;;;;;;14.52;9.98;;;21.80;93.00;;;;;;6240193;23;20024;-68
2023/09/12 01:17:13;;;;;;;15.93;9.52;;;21.70;92.90;;;;;;6240625;23;20011;-67
2023/09/12 01:20:04;;;;;;;17.08;9.45;;;21.70;93.10;;;;;;6242808;23;20016;-67
2023/09/12 01:23:08;;;;;;;14.50;9.55;;;21.70;93.20;;;;;;6241326;23;20019;-67
2023/09/12 01:25:59;;;;;;;15.30;9.55;;;21.60;93.30;;;;;;6240231;23;20012;-67
2023/09/12 01:32:29;;;;;;;15.70;8.48;;;21.60;93.50;;;;;;6243140;22;20008;-64
2023/09/12 01:35:14;;;;;;;13.65;9.02;;;21.50;93.50;;;;;;6239745;23;20795;-67
2023/09/12 01:38:00;;;;;;;15.45;9.45;;;21.50;93.70;;;;;;6242096;22;20012;-67
2023/09/12 01:40:51;;;;;;;15.77;9.70;;;21.50;93.80;;;;;;6242449;23;20012;-67
2023/09/12 01:43:39;;;;;;;17.35;9.77;;;21.50;93.80;;;;;;6240293;23;20089;-67
2023/09/12 01:46:27;;;;;;;18.75;9.52;;;21.40;93.90;;;;;;6239789;23;20048;-67
2023/09/12 01:49:16;;;;;;;13.77;9.50;;;21.40;94.10;;;;;;6241460;23;20031;-67
2023/09/12 01:52:03;;;;;;;13.90;9.23;;;21.40;94.10;;;;;;6240725;23;20008;-67
2023/09/12 01:54:50;;;;;;;12.43;9.15;;;21.30;94.10;;;;;;6242583;22;20043;-68
2023/09/12 01:57:37;;;;;;;16.48;9.80;;;21.30;94.30;;;;;;6241516;22;20016;-67
2023/09/12 02:00:24;;;;;;;15.13;9.52;;;21.30;94.40;;;;;;6242079;22;20008;-67
2023/09/12 02:03:09;;;;;;;16.00;10.00;;;21.30;94.40;;;;;;6242909;22;20015;-67
2023/09/12 02:05:56;;;;;;;20.02;9.15;;;21.30;94.50;;;;;;6240072;23;20008;-67
2023/09/12 02:08:42;;;;;;;16.65;9.32;;;21.30;94.60;;;;;;6240857;23;20397;-67
2023/09/12 02:11:28;;;;;;;14.10;9.38;;;21.30;94.70;;;;;;6242077;23;20015;-68
2023/09/12 02:14:14;;;;;;;14.73;10.10;;;21.20;94.70;;;;;;6241617;23;20023;-67
2023/09/12 02:17:00;;;;;;;15.35;10.02;;;21.20;94.80;;;;;;6241145;23;20445;-67
2023/09/12 02:19:47;;;;;;;16.40;9.65;;;21.20;94.80;;;;;;6240193;23;20449;-68
2023/09/12 02:22:33;;;;;;;13.93;9.00;;;21.20;94.90;;;;;;6240216;23;20004;-68
2023/09/12 02:25:19;;;;;;;14.88;9.32;;;21.20;95.00;;;;;;6241863;23;20008;-67
2023/09/12 02:28:05;;;;;;;15.90;10.25;;;21.20;95.00;;;;;;6242819;22;20036;-68
2023/09/12 02:30:51;;;;;;;14.07;9.82;;;21.10;95.10;;;;;;6240599;23;20395;-68
2023/09/12 02:33:38;;;;;;;16.23;10.07;;;21.10;95.00;;;;;;6241835;23;20016;-67
2023/09/12 02:36:24;;;;;;;14.23;10.52;;;21.10;95.00;;;;;;6240805;23;20493;-67
2023/09/12 02:39:10;;;;;;;14.68;9.80;;;21.10;95.00;;;;;;6239406;23;20028;-67
2023/09/12 02:41:56;;;;;;;13.73;9.93;;;21.00;95.00;;;;;;6242771;23;20012;-68
2023/09/12 02:44:42;;;;;;;13.85;8.55;;;21.00;95.10;;;;;;6242209;23;20099;-69
2023/09/12 02:47:28;;;;;;;14.20;9.82;;;21.00;95.10;;;;;;6242452;23;20015;-69
2023/09/12 02:50:14;;;;;;;13.88;8.80;;;21.00;95.20;;;;;;6241880;23;20509;-69
2023/09/12 02:53:00;;;;;;;13.70;9.30;;;21.00;95.30;;;;;;6241796;23;20020;-68
2023/09/12 02:55:46;;;;;;;13.60;9.20;;;21.00;95.30;;;;;;6240605;22;20468;-68
2023/09/12 02:58:32;;;;;;;13.43;9.73;;;20.90;95.30;;;;;;6241323;23;20009;-68
2023/09/12 03:01:19;;;;;;;14.60;9.27;;;20.90;95.40;;;;;;6242029;23;20087;-68
2023/09/12 03:04:05;;;;;;;15.52;9.38;;;20.90;95.50;;;;;;6241662;22;20456;-68
2023/09/12 03:06:51;;;;;;;15.77;8.73;;;20.80;95.50;;;;;;6241302;22;20010;-68
2023/09/12 03:09:38;;;;;;;13.18;9.30;;;20.80;95.50;;;;;;6241364;23;20087;-68
2023/09/12 03:12:24;;;;;;;13.43;9.27;;;20.80;95.40;;;;;;6241125;23;20362;-69
2023/09/12 03:15:10;;;;;;;12.50;8.73;;;20.80;95.50;;;;;;6242752;22;20020;-68
2023/09/12 03:17:56;;;;;;;13.43;8.80;;;20.80;95.50;;;;;;6241102;23;20395;-68
2023/09/12 03:20:42;;;;;;;14.07;8.73;;;20.80;95.60;;;;;;6241511;23;20015;-68
2023/09/12 03:23:28;;;;;;;14.02;9.18;;;20.80;95.60;;;;;;6241218;23;20012;-68
2023/09/12 03:26:14;;;;;;;21.45;9.15;;;20.70;95.70;;;;;;6241787;23;20008;-69
2023/09/12 03:29:00;;;;;;;12.95;8.52;;;20.70;95.70;;;;;;6241145;23;20015;-69
2023/09/12 03:31:46;;;;;;;15.27;8.80;;;20.70;95.70;;;;;;6243223;23;20119;-69
2023/09/12 03:34:32;;;;;;;17.58;10.27;;;20.70;95.80;;;;;;6242701;23;20103;-69
2023/09/12 03:37:18;;;;;;;13.60;9.57;;;20.60;95.80;;;;;;6241754;23;20337;-68
2023/09/12 03:40:04;;;;;;;15.27;10.63;;;20.70;95.90;;;;;;6244020;22;20329;-68
2023/09/12 03:42:50;;;;;;;13.57;9.18;;;20.60;95.90;;;;;;6241807;23;20012;-68
2023/09/12 03:45:37;;;;;;;11.98;8.88;;;20.60;95.90;;;;;;6243029;23;20015;-68
2023/09/12 03:48:23;;;;;;;13.10;9.77;;;20.60;96.00;;;;;;6240062;23;20337;-68
2023/09/12 03:51:09;;;;;;;12.52;8.85;;;20.50;96.00;;;;;;6243401;23;20042;-69
2023/09/12 03:53:55;;;;;;;15.60;9.80;;;20.60;96.00;;;;;;6244237;22;20433;-68
2023/09/12 03:56:41;;;;;;;16.38;10.10;;;20.50;96.00;;;;;;6243569;22;20024;-68
2023/09/12 03:59:28;;;;;;;11.52;8.77;;;20.50;95.90;;;;;;6241482;23;20043;-68
2023/09/12 04:02:14;;;;;;;11.10;8.18;;;20.50;96.00;;;;;;6243430;23;20274;-67
2023/09/12 04:04:59;;;;;;;11.85;8.02;;;20.50;95.90;;;;;;6244044;22;20453;-68
2023/09/12 04:07:45;;;;;;;14.45;8.85;;;20.50;96.20;;;;;;6243143;23;20019;-68
2023/09/12 04:10:32;;;;;;;14.38;9.05;;;20.50;96.00;;;;;;6241199;23;20004;-68
2023/09/12 04:13:18;;;;;;;14.00;9.50;;;20.50;96.00;;;;;;6241959;23;20023;-70
2023/09/12 04:16:04;;;;;;;10.80;8.23;;;20.40;96.00;;;;;;6242524;23;20092;-69
2023/09/12 04:18:50;;;;;;;14.35;10.00;;;20.40;96.10;;;;;;6242687;23;20016;-70
2023/09/12 04:21:36;;;;;;;15.48;9.65;;;20.40;96.20;;;;;;6242074;23;20008;-70
2023/09/12 04:24:22;;;;;;;13.90;9.40;;;20.40;96.10;;;;;;6243580;22;20023;-70
2023/09/12 04:27:07;;;;;;;13.20;9.15;;;20.40;96.20;;;;;;6242989;23;20019;-69
2023/09/12 04:29:53;;;;;;;13.55;9.15;;;20.30;96.40;;;;;;6242954;23;20097;-70
2023/09/12 04:32:39;;;;;;;15.70;9.10;;;20.30;96.40;;;;;;6243472;22;20008;-70
2023/09/12 04:35:25;;;;;;;16.33;9.70;;;20.30;96.50;;;;;;6240932;23;20314;-69
2023/09/12 04:38:11;;;;;;;13.38;8.68;;;20.30;96.60;;;;;;6242962;23;20457;-72
2023/09/12 04:41:02;;;;;;;14.23;9.88;;;20.30;96.70;;;;;;6243152;23;20040;-68
2023/09/12 04:43:48;;;;;;;14.70;9.73;;;20.30;96.70;;;;;;6240666;23;20087;-68
2023/09/12 04:46:34;;;;;;;15.63;9.80;;;20.30;96.70;;;;;;6243536;23;20329;-69
2023/09/12 04:49:21;;;;;;;17.55;11.30;;;20.30;96.70;;;;;;6243511;22;20327;-68
2023/09/12 04:52:07;;;;;;;14.98;9.95;;;20.30;96.80;;;;;;6240612;23;20571;-69
2023/09/12 04:54:53;;;;;;;12.63;8.95;;;20.30;96.80;;;;;;6243999;22;20099;-68
2023/09/12 04:57:39;;;;;;;15.15;9.65;;;20.30;96.80;;;;;;6243024;23;20251;-69
2023/09/12 05:00:25;;;;;;;14.50;10.13;;;20.40;96.80;;;;;;6242568;23;20027;-69
2023/09/12 05:03:11;;;;;;;17.35;9.88;;;20.40;96.90;;;;;;6241698;23;20407;-68
2023/09/12 05:05:58;;;;;;;12.55;9.35;;;20.40;96.90;;;;;;6242753;23;20012;-68
2023/09/12 05:08:43;;;;;;;17.40;10.48;;;20.40;96.90;;;;;;6242466;22;20004;-68
2023/09/12 05:11:29;;;;;;;20.02;11.57;;;20.40;96.80;;;;;;6241021;23;20012;-68
2023/09/12 05:14:15;;;;;;;20.38;10.80;;;20.50;96.90;;;;;;6240345;23;20401;-69
2023/09/12 05:17:01;;;;;;;16.95;10.45;;;20.50;96.90;;;;;;6242084;23;20063;-68
2023/09/12 05:19:47;;;;;;;17.55;10.57;;;20.50;96.90;;;;;;6241102;23;20016;-69
2023/09/12 05:22:33;;;;;;;14.32;10.18;;;20.60;96.90;;;;;;6241425;23;20004;-69
2023/09/12 05:25:19;;;;;;;14.05;9.55;;;20.60;97.00;;;;;;6240234;23;20421;-69
2023/09/12 05:28:05;;;;;;;16.65;10.48;;;20.70;96.90;;;;;;6241773;23;20478;-69
2023/09/12 05:30:52;;;;;;;20.02;10.30;;;20.70;96.90;;;;;;6240877;23;20107;-68
2023/09/12 05:33:38;;;;;;;19.80;12.15;;;20.80;96.90;;;;;;6240872;23;20086;-68
2023/09/12 05:36:24;;;;;;;19.73;11.82;;;20.90;96.90;;;;;;6240686;23;20097;-68
2023/09/12 05:39:10;;;;;;;16.55;10.68;;;20.90;96.70;;;;;;6241091;23;20358;-67
2023/09/12 05:41:56;;;;;;;18.40;10.18;;;20.90;96.60;;;;;;6241660;23;20095;-67
2023/09/12 05:44:44;;;;;;;17.30;10.63;;;21.00;96.60;;;;;;6239497;23;20012;-67
2023/09/12 05:47:30;;;;;;;16.73;10.15;;;21.00;96.50;;;;;;6240979;23;20020;-67
2023/09/12 05:50:16;;;;;;;15.40;10.30;;;21.10;96.40;;;;;;6240221;23;20012;-67
2023/09/12 05:53:02;;;;;;;18.73;10.32;;;21.10;96.30;;;;;;6241707;22;20055;-67
2023/09/12 05:55:48;;;;;;;19.17;10.73;;;21.20;96.10;;;;;;6240997;22;20090;-66
2023/09/12 05:58:35;;;;;;;17.52;10.93;;;21.30;96.10;;;;;;6239961;23;20429;-65
2023/09/12 06:01:21;;;;;;;19.40;10.80;;;21.30;96.00;;;;;;6239726;23;20398;-68
2023/09/12 06:04:07;;;;;;;15.23;10.02;;;21.40;95.90;;;;;;6240256;23;20008;-68
2023/09/12 06:06:53;;;;;;;14.07;9.95;;;21.40;95.90;;;;;;6241158;23;20026;-68
2023/09/12 06:09:39;;;;;;;21.67;11.63;;;21.50;95.80;;;;;;6241429;22;20083;-65
2023/09/12 06:12:25;;;;;;;16.83;10.82;;;21.50;95.80;;;;;;6238914;23;20007;-68
2023/09/12 06:15:11;;;;;;;19.60;11.40;;;21.60;95.80;;;;;;6239674;23;20453;-68
2023/09/12 06:17:57;;;;;;;19.38;10.35;;;21.70;95.80;;;;;;6238830;23;20012;-68
2023/09/12 06:20:42;;;;;;;15.73;9.93;;;21.70;95.70;;;;;;6240522;23;20022;-68
2023/09/12 06:23:29;;;;;;;20.63;10.68;;;21.80;95.50;;;;;;6241293;23;20022;-68
2023/09/12 06:26:15;;;;;;;24.13;10.25;;;21.90;95.40;;;;;;6239734;23;20039;-68
2023/09/12 06:29:02;;;;;;;16.02;8.82;;;22.00;95.30;;;;;;6239637;23;20094;-68
2023/09/12 06:31:48;;;;;;;15.70;8.85;;;22.00;95.00;;;;;;6240217;23;20018;-68
2023/09/12 06:34:34;;;;;;;16.58;8.20;;;22.10;94.90;;;;;;6237345;23;20042;-68
2023/09/12 06:37:20;;;;;;;11.75;8.63;;;22.20;94.60;;;;;;6241805;23;20019;-68
2023/09/12 06:40:07;;;;;;;11.80;8.10;;;22.30;94.50;;;;;;6240451;23;20008;-68
2023/09/12 06:42:53;;;;;;;10.77;7.05;;;22.40;94.20;;;;;;6241602;22;20009;-68
2023/09/12 06:45:42;;;;;;;13.32;8.07;;;22.50;94.20;;;;;;6240495;22;20019;-68
2023/09/12 06:48:28;;;;;;;11.85;8.02;;;22.50;94.00;;;;;;6240126;23;20461;-68
2023/09/12 06:51:14;;;;;;;12.70;7.40;;;22.60;93.80;;;;;;6239622;23;20361;-68
2023/09/12 06:54:00;;;;;;;11.98;7.97;;;22.70;93.60;;;;;;6241648;23;20024;-66
2023/09/12 06:56:46;;;;;;;11.95;7.88;;;22.70;93.30;;;;;;6240663;22;20053;-71
2023/09/12 06:59:32;;;;;;;14.90;7.13;;;22.80;93.20;;;;;;6238689;23;20782;-68
2023/09/12 07:02:18;;;;;;;13.43;7.38;;;22.90;93.00;;;;;;6239837;23;20015;-69
2023/09/12 07:05:05;;;;;;;10.80;6.97;;;22.90;92.90;;;;;;6242041;23;20405;-69
2023/09/12 07:07:52;;;;;;;11.80;7.28;;;23.00;92.90;;;;;;6242211;23;20366;-69
2023/09/12 07:10:43;;;;;;;11.90;7.70;;;23.10;92.50;;;;;;6240361;23;20062;-66
2023/09/12 07:13:29;;;;;;;13.98;7.18;;;23.20;92.30;;;;;;6241889;23;20070;-69
2023/09/12 07:16:15;;;;;;;11.27;6.18;;;23.20;92.10;;;;;;6243748;23;20004;-69
2023/09/12 07:19:01;;;;;;;11.02;6.20;;;23.30;92.10;;;;;;6242660;23;20004;-68
2023/09/12 07:21:47;;;;;;;9.40;5.95;;;23.40;91.90;;;;;;6242184;23;20019;-68
2023/09/12 07:24:33;;;;;;;16.17;6.43;;;23.40;91.80;;;;;;6242555;23;20012;-68
2023/09/12 07:27:19;;;;;;;16.90;7.07;;;23.50;91.80;;;;;;6242987;23;20342;-69
2023/09/12 07:30:07;;;;;;;13.70;6.95;;;23.60;91.70;;;;;;6242764;23;20346;-69
2023/09/12 07:32:53;;;;;;;8.93;5.57;;;23.60;91.60;;;;;;6241031;23;20019;-69
2023/09/12 07:35:39;;;;;;;8.07;5.57;;;23.70;91.30;;;;;;6241463;23;20016;-69
2023/09/12 07:38:26;;;;;;;8.02;5.88;;;23.80;91.10;;;;;;6243122;23;20040;-69
2023/09/12 07:41:12;;;;;;;11.63;6.05;;;23.80;90.90;;;;;;6242376;23;20400;-69
2023/09/12 07:43:58;;;;;;;11.63;5.95;;;23.90;90.80;;;;;;6241783;23;20011;-68
2023/09/12 07:46:44;;;;;;;14.85;5.65;;;24.00;90.70;;;;;;6243533;23;20019;-68
2023/09/12 07:49:36;;;;;;;22.63;6.15;;;24.10;90.50;;;;;;6243016;23;20019;-69
2023/09/12 07:52:22;;;;;;;10.23;5.78;;;24.20;90.40;;;;;;6243512;23;20011;-75
2023/09/12 07:55:09;;;;;;;8.82;5.28;;;24.30;90.30;;;;;;6242691;22;20156;-74
2023/09/12 07:57:55;;;;;;;11.65;5.82;;;24.30;90.20;;;;;;6243413;23;20016;-75
2023/09/12 08:00:41;;;;;;;10.35;5.78;;;24.40;90.00;;;;;;6243978;22;20031;-75
2023/09/12 08:03:27;;;;;;;10.93;5.53;;;24.50;90.00;;;;;;6242918;22;20015;-74
2023/09/12 08:06:13;;;;;;;12.13;5.22;;;24.60;90.20;;;;;;6241231;23;20012;-75
2023/09/12 08:09:00;;;;;;;11.32;5.65;;;24.70;90.00;;;;;;6243222;23;20004;-75
2023/09/12 08:11:46;;;;;;;11.60;5.75;;;24.80;89.90;;;;;;6241013;23;20327;-76
2023/09/12 08:14:32;;;;;;;11.52;4.63;;;24.80;89.40;;;;;;6243157;23;20094;-76
2023/09/12 08:17:19;;;;;;;12.75;6.00;;;24.90;89.20;;;;;;6242625;22;20004;-76
2023/09/12 08:20:09;;;;;;;12.55;5.28;;;25.00;88.90;;;;;;6242608;23;20012;-76
2023/09/12 08:22:55;;;;;;;12.60;5.10;;;25.10;88.80;;;;;;6241542;22;20008;-76
2023/09/12 08:25:41;;;;;;;36.42;5.85;;;25.10;88.40;;;;;;6241397;23;20044;-76
2023/09/12 08:28:27;;;;;;;10.52;5.60;;;25.20;88.70;;;;;;6243010;23;20087;-75
2023/09/12 08:31:13;;;;;;;9.25;4.70;;;25.30;88.50;;;;;;6242826;23;20008;-74
2023/09/12 08:33:59;;;;;;;11.07;5.30;;;25.30;88.20;;;;;;6241862;23;20261;-74
2023/09/12 08:36:45;;;;;;;8.85;4.93;;;25.40;87.90;;;;;;6243906;22;20397;-74
2023/09/12 08:39:43;;;;;;;10.98;5.07;;;25.50;87.30;;;;;;6242468;23;20816;-74
2023/09/12 08:42:30;;;;;;;8.65;4.60;;;25.50;87.10;;;;;;6242033;22;20449;-75
2023/09/12 08:45:17;;;;;;;9.02;3.90;;;25.70;86.80;;;;;;6239952;23;20203;-75
2023/09/12 08:48:05;;;;;;;7.38;4.25;;;25.70;85.70;;;;;;6241706;23;20438;-76
2023/09/12 08:50:53;;;;;;;9.50;4.38;;;25.80;85.30;;;;;;6241027;23;20498;-75
2023/09/12 08:53:39;;;;;;;9.55;4.50;;;25.90;85.00;;;;;;6241291;23;20016;-76
2023/09/12 08:56:26;;;;;;;9.65;4.68;;;25.90;85.20;;;;;;6241860;22;20019;-76
2023/09/12 08:59:12;;;;;;;16.33;5.80;;;26.00;85.50;;;;;;6240526;23;20012;-75
2023/09/12 09:01:59;;;;;;;14.95;5.55;;;26.10;85.20;;;;;;6242793;23;20445;-74
2023/09/12 09:04:47;;;;;;;11.20;4.80;;;26.20;84.80;;;;;;6242553;23;20008;-75
2023/09/12 09:07:38;;;;;;;7.00;4.38;;;26.30;83.80;;;;;;6240494;23;20023;-75
2023/09/12 09:10:24;;;;;;;11.63;4.13;;;26.40;84.10;;;;;;6240471;23;20008;-74
2023/09/12 09:13:10;;;;;;;13.10;4.50;;;26.50;83.70;;;;;;6242272;23;20016;-74
2023/09/12 09:16:17;;;;;;;14.02;4.45;;;26.50;83.40;;;;;;6241352;23;20062;-76
2023/09/12 09:19:10;;;;;;;13.23;4.70;;;26.70;83.20;;;;;;6242588;22;20016;-75
2023/09/12 09:22:05;;;;;;;9.85;4.05;;;26.70;82.80;;;;;;6241004;23;20070;-75
2023/09/12 09:25:10;;;;;;;10.05;4.53;;;26.90;83.40;;;;;;6241148;23;20004;-76
2023/09/12 09:27:56;;;;;;;11.10;4.00;;;26.90;82.70;;;;;;6239861;23;20012;-76
2023/09/12 09:30:44;;;;;;;11.45;4.82;;;27.00;83.00;;;;;;6241981;23;20711;-75
2023/09/12 09:33:35;;;;;;;9.55;4.80;;;27.10;82.90;;;;;;6240657;23;20031;-75
2023/09/12 09:36:21;;;;;;;10.05;5.20;;;27.20;83.10;;;;;;6240242;23;20437;-76
2023/09/12 09:39:07;;;;;;;7.97;4.80;;;27.20;82.70;;;;;;6242176;23;20392;-75
2023/09/12 09:41:55;;;;;;;14.25;4.30;;;27.40;83.00;;;;;;6242547;22;20008;-76
2023/09/12 09:44:41;;;;;;;10.18;4.82;;;27.40;83.00;;;;;;6241568;23;20069;-77
2023/09/12 09:47:27;;;;;;;9.13;4.85;;;27.40;83.30;;;;;;6243597;22;20078;-77
2023/09/12 09:50:17;;;;;;;8.18;4.00;;;27.50;83.30;;;;;;6241303;23;20012;-79
2023/09/12 09:53:05;;;;;;;11.38;5.65;;;27.50;83.40;;;;;;6242159;23;20019;-77
2023/09/12 09:55:51;;;;;;;11.48;4.57;;;27.50;83.20;;;;;;6240222;22;20094;-76
2023/09/12 09:58:51;;;;;;;12.35;6.05;;;27.60;83.40;;;;;;6242158;23;20467;-76
2023/09/12 10:01:37;;;;;;;10.18;5.85;;;27.60;83.50;;;;;;6240454;23;20012;-77
2023/09/12 10:04:26;;;;;;;12.00;5.47;;;27.70;83.70;;;;;;6241947;22;20007;-76
2023/09/12 10:07:13;;;;;;;8.43;5.00;;;27.70;83.80;;;;;;6242196;22;20407;-76
2023/09/12 10:10:03;;;;;;;10.70;5.65;;;27.80;83.90;;;;;;6241275;22;20446;-76
2023/09/12 10:12:51;;;;;;;8.65;4.55;;;27.80;84.10;;;;;;6240942;23;20087;-76
2023/09/12 10:15:38;;;;;;;11.55;5.50;;;27.80;84.10;;;;;;6240555;23;20099;-76
2023/09/12 10:18:26;;;;;;;9.63;5.18;;;27.90;84.20;;;;;;6241607;22;20004;-76
2023/09/12 10:21:19;;;;;;;9.15;5.82;;;27.90;84.10;;;;;;6239879;23;20223;-76
2023/09/12 10:24:09;;;;;;;8.45;5.22;;;27.90;84.20;;;;;;6242787;22;20008;-76
2023/09/12 10:26:56;;;;;;;14.13;6.03;;;27.90;84.30;;;;;;6240600;23;20008;-76
2023/09/12 10:29:47;;;;;;;16.17;6.32;;;27.90;84.20;;;;;;6239379;23;20004;-76
2023/09/12 10:32:34;;;;;;;9.50;5.47;;;27.90;84.30;;;;;;6240322;23;20397;-75
2023/09/12 10:35:21;;;;;;;8.93;5.85;;;27.90;84.10;;;;;;6241840;22;20050;-76
2023/09/12 10:38:08;;;;;;;14.68;5.65;;;28.00;84.40;;;;;;6239311;23;20008;-78
2023/09/12 10:40:55;;;;;;;13.70;6.13;;;28.00;84.10;;;;;;6242183;23;20023;-76
2023/09/12 10:43:46;;;;;;;14.45;5.90;;;28.10;84.30;;;;;;6239904;23;20004;-78
2023/09/12 10:46:32;;;;;;;13.77;5.43;;;28.10;83.50;;;;;;6240856;22;20008;-77
2023/09/12 10:49:19;;;;;;;15.43;5.30;;;28.10;83.50;;;;;;6238543;23;20382;-76
2023/09/12 10:52:05;;;;;;;14.25;5.15;;;28.20;82.50;;;;;;6238785;23;20446;-74
2023/09/12 10:54:51;;;;;;;12.10;5.95;;;28.20;82.50;;;;;;6239560;22;20412;-76
2023/09/12 10:58:01;;;;;;;14.23;5.35;;;28.20;82.20;;;;;;6241367;23;20028;-78
2023/09/12 11:01:25;;;;;;;11.00;6.00;;;28.20;82.60;;;;;;6239690;23;20016;-76
2023/09/12 11:04:20;;;;;;;12.70;5.00;;;28.20;82.30;;;;;;6241635;22;20097;-81
2023/09/12 11:07:35;;;;;;;11.55;4.75;;;28.20;81.80;;;;;;6241637;23;20019;-77
2023/09/12 11:10:22;;;;;;;14.47;5.07;;;28.30;81.40;;;;;;6240662;23;20000;-76
2023/09/12 11:13:19;;;;;;;12.00;4.68;;;28.30;81.00;;;;;;6240196;23;20270;-75
2023/09/12 11:16:20;;;;;;;15.68;4.50;;;28.40;80.90;;;;;;6239839;23;20418;-75
2023/09/12 11:19:19;;;;;;;15.73;4.82;;;28.40;80.50;;;;;;6240416;23;20527;-74
2023/09/12 11:22:21;;;;;;;13.80;5.43;;;28.50;81.00;;;;;;6239829;23;20479;-76
2023/09/12 11:25:26;;;;;;;15.15;5.03;;;28.60;81.10;;;;;;6239882;23;20012;-77
2023/09/12 11:28:12;;;;;;;15.60;6.32;;;28.70;80.80;;;;;;6239645;23;20055;-74
2023/09/12 11:30:58;;;;;;;9.20;5.03;;;28.70;80.70;;;;;;6241867;23;20039;-76
2023/09/12 11:33:44;;;;;;;9.90;5.47;;;28.70;80.90;;;;;;6239784;23;20493;-77
2023/09/12 11:36:30;;;;;;;9.15;4.78;;;28.80;81.10;;;;;;6241559;23;20020;-77
2023/09/12 11:39:24;;;;;;;16.45;5.97;;;28.90;81.30;;;;;;6242311;23;20449;-77
2023/09/12 11:42:13;;;;;;;13.60;6.00;;;29.00;81.00;;;;;;6239690;23;20150;-76
2023/09/12 11:44:59;;;;;;;9.25;5.35;;;29.00;80.80;;;;;;6240041;23;20438;-76
2023/09/12 11:47:46;;;;;;;9.63;5.60;;;29.20;80.80;;;;;;6242116;23;20012;-77
2023/09/12 11:50:35;;;;;;;8.73;5.25;;;29.20;80.50;;;;;;6239713;23;20323;-76
2023/09/12 11:53:25;;;;;;;13.80;5.55;;;29.30;80.40;;;;;;6243322;22;20452;-76
2023/09/12 11:56:11;;;;;;;11.10;5.50;;;29.30;79.70;;;;;;6241260;22;20403;-76
2023/09/12 11:58:57;;;;;;;14.30;4.97;;;29.30;79.60;;;;;;6241621;23;20009;-78
2023/09/12 12:01:43;;;;;;;9.25;5.38;;;29.40;79.70;;;;;;6242550;22;20008;-76
2023/09/12 12:04:29;;;;;;;7.47;4.68;;;29.40;79.80;;;;;;6242156;23;20057;-78
2023/09/12 12:07:15;;;;;;;10.23;4.35;;;29.50;79.30;;;;;;6242834;23;20016;-77
2023/09/12 12:10:01;;;;;;;8.52;5.03;;;29.50;79.40;;;;;;6243152;23;20015;-76
2023/09/12 12:12:47;;;;;;;12.52;5.35;;;29.60;79.30;;;;;;6243198;23;20012;-75
2023/09/12 12:15:33;;;;;;;6.88;4.55;;;29.50;79.00;;;;;;6243025;23;20091;-76
2023/09/12 12:18:19;;;;;;;9.80;4.38;;;29.60;78.90;;;;;;6243245;23;20055;-76
2023/09/12 12:21:05;;;;;;;9.32;4.70;;;29.60;78.70;;;;;;6242703;23;20285;-76
2023/09/12 12:24:04;;;;;;;11.70;4.55;;;29.60;78.90;;;;;;6241054;23;20018;-75
2023/09/12 12:26:50;;;;;;;7.65;4.22;;;29.60;78.60;;;;;;6240773;23;20020;-75
2023/09/12 12:29:39;;;;;;;7.35;4.38;;;29.60;78.40;;;;;;6242516;22;20038;-76
2023/09/12 12:32:25;;;;;;;7.63;4.22;;;29.60;78.40;;;;;;6241300;23;20012;-76
2023/09/12 12:35:18;;;;;;;6.90;4.47;;;29.60;77.90;;;;;;6241995;23;20517;-75
2023/09/12 12:38:04;;;;;;;8.70;3.95;;;29.60;78.10;;;;;;6241020;23;20334;-76
2023/09/12 12:40:50;;;;;;;7.40;4.43;;;29.70;78.10;;;;;;6242133;23;20446;-76
2023/09/12 12:43:40;;;;;;;8.98;4.03;;;29.70;77.50;;;;;;6242607;22;20012;-81
2023/09/12 12:46:27;;;;;;;8.30;4.15;;;29.70;77.30;;;;;;6241333;23;20074;-76
2023/09/12 12:49:15;;;;;;;8.88;4.28;;;29.70;76.80;;;;;;6240165;23;20012;-73
2023/09/12 12:52:02;;;;;;;6.47;4.22;;;29.70;76.70;;;;;;6240692;23;20058;-72
2023/09/12 13:20:10;;;;;;;8.10;4.07;;;30.10;75.60;;;;;;6236449;22;20031;-76
2023/09/12 13:22:56;;;;;;;11.18;4.93;;;30.10;74.90;;;;;;6240732;23;20031;-77
2023/09/12 13:25:42;;;;;;;6.68;4.50;;;30.10;74.70;;;;;;6238398;23;20446;-77
2023/09/12 13:28:29;;;;;;;8.75;4.45;;;30.20;74.70;;;;;;6242246;22;20632;-76
2023/09/12 13:31:15;;;;;;;11.27;4.55;;;30.20;75.00;;;;;;6239352;23;20490;-77
2023/09/12 13:34:01;;;;;;;10.88;4.18;;;30.40;75.00;;;;;;6240771;23;20016;-77
2023/09/12 13:36:47;;;;;;;7.43;4.03;;;30.40;75.00;;;;;;6241920;23;20012;-76
2023/09/12 13:39:33;;;;;;;8.27;3.88;;;30.50;74.30;;;;;;6240286;23;20425;-76
2023/09/12 13:42:19;;;;;;;11.25;4.63;;;30.50;73.90;;;;;;6240944;23;20457;-76
2023/09/12 13:45:06;;;;;;;8.52;4.32;;;30.60;74.00;;;;;;6238841;23;20015;-77
2023/09/12 13:47:52;;;;;;;8.15;3.67;;;30.60;73.30;;;;;;6240288;23;20011;-77
2023/09/12 13:50:38;;;;;;;8.27;3.65;;;30.70;73.20;;;;;;6240945;23;20016;-78
2023/09/12 13:53:24;;;;;;;7.78;4.03;;;30.70;72.40;;;;;;6239761;23;20046;-78
2023/09/12 13:56:10;;;;;;;9.73;4.63;;;30.70;72.60;;;;;;6241611;22;20121;-78
2023/09/12 13:58:56;;;;;;;10.07;4.90;;;30.80;72.60;;;;;;6240359;23;20047;-78
2023/09/12 14:01:41;;;;;;;9.45;4.22;;;30.90;72.40;;;;;;6242246;23;20334;-78
2023/09/12 14:04:27;;;;;;;6.53;4.32;;;30.90;71.90;;;;;;6242147;23;20059;-79
2023/09/12 14:07:13;;;;;;;10.73;4.57;;;30.90;71.80;;;;;;6241930;23;20036;-77
2023/09/12 14:10:00;;;;;;;12.52;4.40;;;31.00;72.20;;;;;;6242156;23;20015;-78
2023/09/12 14:12:46;;;;;;;10.82;4.32;;;31.00;72.00;;;;;;6240624;23;20015;-68
2023/09/12 14:15:32;;;;;;;11.98;4.22;;;31.00;71.80;;;;;;6241439;23;20476;-68
2023/09/12 14:18:19;;;;;;;10.32;4.45;;;31.00;71.20;;;;;;6241712;23;20386;-68
2023/09/12 14:21:05;;;;;;;11.02;4.38;;;31.00;70.90;;;;;;6240190;23;20024;-68
2023/09/12 14:23:51;;;;;;;18.35;4.55;;;31.10;70.20;;;;;;6239270;23;20012;-68
2023/09/12 14:26:37;;;;;;;6.50;4.10;;;31.10;70.00;;;;;;6241741;23;20039;-68
2023/09/12 14:29:26;;;;;;;11.32;4.47;;;31.20;70.40;;;;;;6241101;23;20437;-68
2023/09/12 14:32:12;;;;;;;6.53;4.10;;;31.20;70.20;;;;;;6238824;23;20011;-68
2023/09/12 14:34:58;;;;;;;8.90;4.68;;;31.20;69.80;;;;;;6236562;23;20027;-68
2023/09/12 14:37:44;;;;;;;11.82;3.58;;;31.20;70.50;;;;;;6218713;23;20004;-67
2023/09/12 14:40:30;;;;;;;9.45;3.80;;;31.20;70.30;;;;;;6242758;22;20012;-68
2023/09/12 14:43:16;;;;;;;9.80;4.35;;;31.30;69.80;;;;;;6239640;23;20036;-68
2023/09/12 14:46:03;;;;;;;9.55;4.70;;;31.20;68.90;;;;;;6240599;22;20426;-69
2023/09/12 14:48:49;;;;;;;8.50;4.30;;;31.10;69.00;;;;;;6238693;23;20046;-68
2023/09/12 14:51:35;;;;;;;11.90;5.40;;;31.10;69.60;;;;;;6238685;23;20091;-68